Meteorología y climatología de Navarra
Datos de la estación - Meteo Navarra

Estación de Bardenas (El Yugo) GN

Altitud 486 m.


Datos desde el 03/12/2019 hasta el 04/12/2019 en horario solar
Los datos son PROVISIONALES

Anterior Página 1 de 1 Siguiente Descargar: Formato para Excel 2000 o superior   Formato csv   Formato para OpenOffice Calc
Fecha Temperatura Humedad relativa Radiación global Insolación Precipitación Vel. viento 10 m Vel. viento 10 m Dir. viento 10 m
ºC % W/m² s l/m² m/s km/h º
03/12/2019 0:00 4.1 80 0.0 0 0.0 5.1 18.2 340
03/12/2019 0:10 4.0 81 0.0 0 0.0 4.2 15.2 339
03/12/2019 0:20 4.1 81 0.0 0 0.0 5.6 20.1 343
03/12/2019 0:30 4.0 81 0.0 0 0.0 6.1 22.0 346
03/12/2019 0:40 4.0 80 0.0 0 0.0 6.3 22.6 343
03/12/2019 0:50 4.0 80 0.0 0 0.0 6.0 21.7 334
03/12/2019 1:00 3.8 81 0.0 0 0.0 5.8 20.8 332
03/12/2019 1:10 3.6 81 0.0 0 0.0 5.5 19.7 327
03/12/2019 1:20 3.5 82 0.0 0 0.0 5.5 19.7 326
03/12/2019 1:30 3.3 82 0.0 0 0.0 5.0 18.0 333
03/12/2019 1:40 3.3 82 0.0 0 0.0 5.4 19.5 332
03/12/2019 1:50 3.3 82 0.0 0 0.0 5.8 20.8 328
03/12/2019 2:00 3.3 82 0.0 0 0.0 5.1 18.3 328
03/12/2019 2:10 3.3 83 0.0 0 0.0 5.7 20.4 320
03/12/2019 2:20 3.2 83 0.0 0 0.0 5.2 18.9 318
03/12/2019 2:30 3.1 83 0.0 0 0.0 5.2 18.8 312
03/12/2019 2:40 3.0 84 0.0 0 0.0 4.8 17.3 315
03/12/2019 2:50 2.9 85 0.0 0 0.0 5.3 19.1 323
03/12/2019 3:00 2.9 85 0.0 0 0.0 4.8 17.1 321
03/12/2019 3:10 2.8 86 0.0 0 0.0 4.8 17.1 320
03/12/2019 3:20 2.8 86 0.0 0 0.0 5.6 20.0 323
03/12/2019 3:30 2.7 85 0.0 0 0.0 5.1 18.2 320
03/12/2019 3:40 2.7 86 0.0 0 0.0 4.9 17.6 323
03/12/2019 3:50 2.7 86 0.0 0 0.0 5.0 17.8 323
03/12/2019 4:00 2.7 86 0.0 0 0.0 4.8 17.2 324
03/12/2019 4:10 2.9 86 0.0 0 0.0 4.7 16.8 325
03/12/2019 4:20 2.9 86 0.0 0 0.0 4.6 16.6 325
03/12/2019 4:30 2.7 87 0.0 0 0.0 4.7 16.9 326
03/12/2019 4:40 2.6 87 0.0 0 0.0 4.5 16.2 325
03/12/2019 4:50 2.6 88 0.0 0 0.0 4.6 16.6 322
03/12/2019 5:00 2.6 87 0.0 0 0.0 5.0 18.1 325
03/12/2019 5:10 2.6 85 0.0 0 0.0 5.2 18.7 326
03/12/2019 5:20 2.7 84 0.0 0 0.0 5.0 18.0 328
03/12/2019 5:30 2.8 82 0.0 0 0.0 4.6 16.6 325
03/12/2019 5:40 2.9 81 0.0 0 0.0 4.4 15.9 324
03/12/2019 5:50 3.1 81 0.0 0 0.0 5.1 18.2 318
03/12/2019 6:00 3.3 81 0.0 0 0.0 5.6 20.1 325
03/12/2019 6:10 3.3 81 0.0 0 0.0 4.7 16.9 330
03/12/2019 6:20 3.2 81 0.0 0 0.0 5.0 18.0 331
03/12/2019 6:30 3.2 81 0.0 0 0.0 4.6 16.4 327
03/12/2019 6:40 3.2 80 0.0 0 0.0 5.0 18.1 322
03/12/2019 6:50 3.1 81 0.0 0 0.0 4.9 17.7 323
03/12/2019 7:00 3.0 81 0.0 0 0.0 5.1 18.4 321
03/12/2019 7:10 2.9 82 0.0 0 0.0 5.1 18.4 321
03/12/2019 7:20 2.9 81 0.0 0 0.0 4.9 17.7 324
03/12/2019 7:30 3.0 80 7.8 0 0.0 4.5 16.2 324
03/12/2019 7:40 3.0 79 28.0 166 0.0 4.8 17.2 321
03/12/2019 7:50 3.0 79 52.1 600 0.0 4.2 15.2 321
03/12/2019 8:00 3.1 79 74.9 600 0.0 3.8 13.7 328
03/12/2019 8:10 3.2 80 90.5 600 0.0 4.2 15.0 325
03/12/2019 8:20 3.3 80 113.0 600 0.0 3.9 14.1 327
03/12/2019 8:30 3.3 81 140.5 600 0.0 3.5 12.4 334
03/12/2019 8:40 3.7 80 165.5 600 0.0 3.4 12.3 327
03/12/2019 8:50 4.0 77 186.2 600 0.0 4.0 14.3 332
03/12/2019 9:00 4.1 76 210.4 600 0.0 4.8 17.4 329
03/12/2019 9:10 4.2 75 232.5 600 0.0 4.7 16.8 332
03/12/2019 9:20 4.5 74 255.4 600 0.0 4.9 17.7 334
03/12/2019 9:30 4.7 73 278.1 600 0.0 5.8 20.7 330
03/12/2019 9:40 4.9 73 300.5 600 0.0 5.3 19.2 333
03/12/2019 9:50 5.2 71 325.3 600 0.0 5.3 19.1 332
03/12/2019 10:00 5.3 71 351.4 554 0.0 5.4 19.5 331
03/12/2019 10:10 5.5 70 375.8 556 0.0 4.9 17.6 333
03/12/2019 10:20 5.7 70 363.0 530 0.0 4.4 15.9 334
03/12/2019 10:30 5.6 71 287.7 490 0.0 4.3 15.4 332
03/12/2019 10:40 5.4 72 233.7 308 0.0 4.7 16.8 341
03/12/2019 10:50 5.4 72 393.8 446 0.0 4.8 17.2 337
03/12/2019 11:00 5.8 70 363.5 456 0.0 4.6 16.6 333
03/12/2019 11:10 6.0 70 385.3 496 0.0 4.6 16.6 346
03/12/2019 11:20 6.1 69 401.4 580 0.0 4.2 14.9 322
03/12/2019 11:30 6.3 69 437.3 600 0.0 3.8 13.6 331
03/12/2019 11:40 6.7 68 463.4 600 0.0 3.8 13.6 327
03/12/2019 11:50 7.0 67 459.3 600 0.0 3.5 12.6 333
03/12/2019 12:00 7.1 67 483.7 600 0.0 3.5 12.6 330
03/12/2019 12:10 7.3 66 445.2 600 0.0 3.7 13.2 328
03/12/2019 12:20 7.3 66 490.3 600 0.0 3.5 12.7 326
03/12/2019 12:30 7.2 66 271.7 252 0.0 3.8 13.5 347
03/12/2019 12:40 7.1 67 423.6 562 0.0 2.9 10.5 332
03/12/2019 12:50 7.0 66 232.3 222 0.0 3.5 12.5 321
03/12/2019 13:00 6.5 68 203.8 108 0.0 3.4 12.3 331
03/12/2019 13:10 6.4 69 233.8 366 0.0 2.6 9.5 329
03/12/2019 13:20 6.8 68 294.4 600 0.0 3.2 11.4 330
03/12/2019 13:30 7.1 66 347.7 558 0.0 3.2 11.5 319
03/12/2019 13:40 7.6 65 368.8 600 0.0 2.8 10.1 324
03/12/2019 13:50 7.8 64 349.5 584 0.0 2.5 9.1 339
03/12/2019 14:00 7.6 65 337.2 600 0.0 3.1 11.1 314
03/12/2019 14:10 7.6 65 317.6 600 0.0 3.5 12.5 301
03/12/2019 14:20 7.7 65 287.3 588 0.0 2.8 10.0 313
03/12/2019 14:30 7.0 66 80.9 34 0.0 2.9 10.3 303
03/12/2019 14:40 6.2 70 71.0 0 0.0 2.9 10.4 297
03/12/2019 14:50 5.9 71 72.9 0 0.0 2.6 9.3 302
03/12/2019 15:00 5.9 71 106.5 0 0.0 2.3 8.4 304
03/12/2019 15:10 6.2 71 90.4 0 0.0 2.2 8.1 298
03/12/2019 15:20 6.1 70 92.6 0 0.0 2.5 8.9 305
03/12/2019 15:30 6.0 71 55.8 0 0.0 2.2 7.8 307
03/12/2019 15:40 5.6 73 34.5 0 0.0 1.8 6.6 317
03/12/2019 15:50 5.3 74 28.5 0 0.0 1.8 6.6 308
03/12/2019 16:00 5.1 75 23.3 0 0.0 1.9 6.9 306
03/12/2019 16:10 5.0 75 14.6 0 0.0 1.9 7.0 311
03/12/2019 16:20 4.9 75 0.0 0 0.0 2.2 8.0 309
03/12/2019 16:30 4.8 75 0.0 0 0.0 2.3 8.1 316
03/12/2019 16:40 4.6 75 0.0 0 0.0 2.4 8.5 319
03/12/2019 16:50 4.6 75 0.0 0 0.0 2.3 8.2 322
03/12/2019 17:00 4.5 75 0.0 0 0.0 2.1 7.6 320
03/12/2019 17:10 4.4 76 0.0 0 0.0 2.1 7.5 331
03/12/2019 17:20 4.3 76 0.0 0 0.0 2.1 7.4 332
03/12/2019 17:30 4.3 76 0.0 0 0.0 2.2 7.7 343
03/12/2019 17:40 4.0 77 0.0 0 0.0 2.3 8.2 352
03/12/2019 17:50 3.8 79 0.0 0 0.0 2.3 8.4 84
03/12/2019 18:00 3.3 82 0.0 0 0.0 2.5 9.0 83
03/12/2019 18:10 3.2 83 0.0 0 0.0 2.2 7.8 67
03/12/2019 18:20 3.5 83 0.0 0 0.0 2.3 8.3 82
03/12/2019 18:30 3.4 83 0.0 0 0.0 2.5 8.9 82
03/12/2019 18:40 3.3 84 0.0 0 0.0 2.6 9.4 85
03/12/2019 18:50 3.1 85 0.0 0 0.0 3.0 10.7 88
03/12/2019 19:00 2.7 87 0.0 0 0.0 2.4 8.7 99
03/12/2019 19:10 2.4 89 0.0 0 0.0 2.6 9.4 108
03/12/2019 19:20 2.5 90 0.0 0 0.0 2.3 8.4 106
03/12/2019 19:30 2.6 90 0.0 0 0.0 2.5 8.9 121
03/12/2019 19:40 3.0 89 0.0 0 0.0 1.9 6.9 90
03/12/2019 19:50 2.9 88 0.0 0 0.0 2.7 9.8 105
03/12/2019 20:00 2.8 90 0.0 0 0.0 1.6 5.7 74
03/12/2019 20:10 3.1 88 0.0 0 0.0 1.6 5.6 39
03/12/2019 20:20 3.6 84 0.0 0 0.0 1.4 5.1 48
03/12/2019 20:30 3.8 82 0.0 0 0.0 0.9 3.2 37
03/12/2019 20:40 3.6 82 0.0 0 0.0 0.8 3.0 257
03/12/2019 20:50 2.9 85 0.0 0 0.0 1.7 6.0 243
03/12/2019 21:00 2.6 87 0.0 0 0.0 1.7 6.2 233
03/12/2019 21:10 2.6 88 0.0 0 0.0 1.6 5.7 232
03/12/2019 21:20 2.5 88 0.0 0 0.0 1.0 3.7 231
03/12/2019 21:30 3.0 87 0.0 0 0.0 0.8 3.0 233
03/12/2019 21:40 3.4 84 0.0 0 0.0 0.4 1.6 235
03/12/2019 21:50 3.6 82 0.0 0 0.0 0.4 1.5 235
03/12/2019 22:00 3.7 83 0.0 0 0.0 0.6 2.1 235
03/12/2019 22:10 3.7 82 0.0 0 0.0 1.2 4.4 237
03/12/2019 22:20 3.3 84 0.0 0 0.0 1.5 5.3 241
03/12/2019 22:30 2.9 86 0.0 0 0.0 1.4 5.1 244
03/12/2019 22:40 2.7 88 0.0 0 0.0 1.1 4.0 242
03/12/2019 22:50 2.8 88 0.0 0 0.0 1.4 4.9 246
03/12/2019 23:00 2.7 88 0.0 0 0.0 1.0 3.7 256
03/12/2019 23:10 2.6 87 0.0 0 0.0 0.7 2.6 326
03/12/2019 23:20 2.2 89 0.0 0 0.0 2.0 7.1 24
03/12/2019 23:30 1.9 90 0.0 0 0.0 1.9 7.0 10
03/12/2019 23:40 1.7 91 0.0 0 0.0 2.2 8.0 354
03/12/2019 23:50 1.7 91 0.0 0 0.0 2.5 8.8 351
Anterior Página 1 de 1 Siguiente

NOTA: Tipo de datos según el color:
   - Valores diarios o 10 minutos correctos
   - Valores diarios calculados a partir de un número de datos 10 minutos menor que 144 y mayor que 120, o de un número de datos semihorarios menor que 48 y mayor que 40 (caso de las estaciones de Riegos de Navarra y del MARM)
   - Valores diez minutos estimados


Contacto        Enlaces        Aviso legal